sensor_id;sensor_type;location;lat;lon;timestamp;P1;durP1;ratioP1;P2;durP2;ratioP2
5521;SDS011;2783;48.730;8.006;2022-10-15T00:02:05;1.95;;;0.60;;
5521;SDS011;2783;48.730;8.006;2022-10-15T00:04:31;0.65;;;0.50;;
5521;SDS011;2783;48.730;8.006;2022-10-15T00:06:57;2.05;;;0.50;;
5521;SDS011;2783;48.730;8.006;2022-10-15T00:09:23;2.63;;;0.50;;
5521;SDS011;2783;48.730;8.006;2022-10-15T00:11:49;3.00;;;0.57;;
5521;SDS011;2783;48.730;8.006;2022-10-15T00:14:14;1.35;;;0.50;;
5521;SDS011;2783;48.730;8.006;2022-10-15T00:16:40;1.15;;;0.55;;
5521;SDS011;2783;48.730;8.006;2022-10-15T00:19:05;0.70;;;0.50;;
5521;SDS011;2783;48.730;8.006;2022-10-15T00:21:30;0.80;;;0.40;;
5521;SDS011;2783;48.730;8.006;2022-10-15T00:23:56;2.00;;;0.70;;
5521;SDS011;2783;48.730;8.006;2022-10-15T00:26:23;3.80;;;0.75;;
5521;SDS011;2783;48.730;8.006;2022-10-15T00:28:51;2.15;;;1.10;;
5521;SDS011;2783;48.730;8.006;2022-10-15T00:31:18;3.00;;;0.90;;
5521;SDS011;2783;48.730;8.006;2022-10-15T00:33:45;2.30;;;0.63;;
5521;SDS011;2783;48.730;8.006;2022-10-15T00:36:13;1.88;;;0.80;;
5521;SDS011;2783;48.730;8.006;2022-10-15T00:38:41;5.55;;;0.95;;
5521;SDS011;2783;48.730;8.006;2022-10-15T00:41:07;2.97;;;0.80;;
5521;SDS011;2783;48.730;8.006;2022-10-15T00:43:43;3.67;;;0.65;;
5521;SDS011;2783;48.730;8.006;2022-10-15T00:48:42;3.55;;;1.02;;
5521;SDS011;2783;48.730;8.006;2022-10-15T00:51:10;2.60;;;1.15;;
5521;SDS011;2783;48.730;8.006;2022-10-15T00:53:36;2.65;;;0.70;;
5521;SDS011;2783;48.730;8.006;2022-10-15T00:56:01;1.30;;;0.65;;
5521;SDS011;2783;48.730;8.006;2022-10-15T00:58:28;1.58;;;0.60;;
5521;SDS011;2783;48.730;8.006;2022-10-15T01:00:56;2.17;;;1.23;;
5521;SDS011;2783;48.730;8.006;2022-10-15T01:03:22;3.05;;;0.70;;
5521;SDS011;2783;48.730;8.006;2022-10-15T01:05:50;2.92;;;0.63;;
5521;SDS011;2783;48.730;8.006;2022-10-15T01:08:16;4.68;;;1.20;;
5521;SDS011;2783;48.730;8.006;2022-10-15T01:10:50;5.00;;;1.00;;
5521;SDS011;2783;48.730;8.006;2022-10-15T01:13:37;2.85;;;0.70;;
5521;SDS011;2783;48.730;8.006;2022-10-15T01:16:15;2.92;;;0.73;;
5521;SDS011;2783;48.730;8.006;2022-10-15T01:18:45;1.85;;;0.60;;
5521;SDS011;2783;48.730;8.006;2022-10-15T01:21:21;1.52;;;0.60;;
5521;SDS011;2783;48.730;8.006;2022-10-15T01:37:35;1.50;;;0.60;;
5521;SDS011;2783;48.730;8.006;2022-10-15T01:40:12;1.10;;;0.57;;
5521;SDS011;2783;48.730;8.006;2022-10-15T01:42:53;0.70;;;0.52;;
5521;SDS011;2783;48.730;8.006;2022-10-15T01:45:24;0.65;;;0.50;;
5521;SDS011;2783;48.730;8.006;2022-10-15T01:48:08;2.78;;;0.88;;
5521;SDS011;2783;48.730;8.006;2022-10-15T01:50:36;1.13;;;0.40;;
5521;SDS011;2783;48.730;8.006;2022-10-15T01:53:07;1.50;;;0.45;;
5521;SDS011;2783;48.730;8.006;2022-10-15T01:55:35;3.95;;;0.65;;
5521;SDS011;2783;48.730;8.006;2022-10-15T01:58:05;0.90;;;0.38;;
5521;SDS011;2783;48.730;8.006;2022-10-15T02:00:32;0.98;;;0.35;;
5521;SDS011;2783;48.730;8.006;2022-10-15T02:03:01;0.65;;;0.40;;
5521;SDS011;2783;48.730;8.006;2022-10-15T02:05:34;3.13;;;0.47;;
5521;SDS011;2783;48.730;8.006;2022-10-15T02:08:19;3.72;;;0.70;;
5521;SDS011;2783;48.730;8.006;2022-10-15T02:13:44;0.45;;;0.30;;
5521;SDS011;2783;48.730;8.006;2022-10-15T02:16:21;0.38;;;0.32;;
5521;SDS011;2783;48.730;8.006;2022-10-15T02:18:49;0.30;;;0.30;;
5521;SDS011;2783;48.730;8.006;2022-10-15T02:21:41;4.95;;;0.60;;
5521;SDS011;2783;48.730;8.006;2022-10-15T02:24:19;0.73;;;0.50;;
5521;SDS011;2783;48.730;8.006;2022-10-15T02:26:53;1.30;;;0.50;;
5521;SDS011;2783;48.730;8.006;2022-10-15T02:29:22;1.35;;;0.60;;
5521;SDS011;2783;48.730;8.006;2022-10-15T02:31:51;1.00;;;0.65;;
5521;SDS011;2783;48.730;8.006;2022-10-15T02:34:19;1.10;;;0.60;;
5521;SDS011;2783;48.730;8.006;2022-10-15T02:36:46;0.85;;;0.50;;
5521;SDS011;2783;48.730;8.006;2022-10-15T02:39:14;1.70;;;0.70;;
5521;SDS011;2783;48.730;8.006;2022-10-15T02:41:44;1.98;;;0.40;;
5521;SDS011;2783;48.730;8.006;2022-10-15T02:44:11;0.32;;;0.32;;
5521;SDS011;2783;48.730;8.006;2022-10-15T02:46:36;1.55;;;0.50;;
5521;SDS011;2783;48.730;8.006;2022-10-15T02:49:02;0.47;;;0.45;;
5521;SDS011;2783;48.730;8.006;2022-10-15T02:51:30;0.65;;;0.65;;
5521;SDS011;2783;48.730;8.006;2022-10-15T02:53:56;0.55;;;0.43;;
5521;SDS011;2783;48.730;8.006;2022-10-15T02:56:21;2.20;;;0.50;;
5521;SDS011;2783;48.730;8.006;2022-10-15T02:58:47;0.63;;;0.47;;
5521;SDS011;2783;48.730;8.006;2022-10-15T03:01:12;1.27;;;0.55;;
5521;SDS011;2783;48.730;8.006;2022-10-15T03:03:38;1.85;;;0.40;;
5521;SDS011;2783;48.730;8.006;2022-10-15T03:06:03;0.80;;;0.50;;
5521;SDS011;2783;48.730;8.006;2022-10-15T03:08:30;0.60;;;0.50;;
5521;SDS011;2783;48.730;8.006;2022-10-15T03:10:58;1.40;;;0.40;;
5521;SDS011;2783;48.730;8.006;2022-10-15T03:13:25;2.83;;;0.70;;
5521;SDS011;2783;48.730;8.006;2022-10-15T03:15:51;0.57;;;0.55;;
5521;SDS011;2783;48.730;8.006;2022-10-15T03:18:16;1.33;;;0.55;;
5521;SDS011;2783;48.730;8.006;2022-10-15T03:20:42;0.80;;;0.50;;
5521;SDS011;2783;48.730;8.006;2022-10-15T03:23:07;2.22;;;0.60;;
5521;SDS011;2783;48.730;8.006;2022-10-15T03:25:33;0.47;;;0.40;;
5521;SDS011;2783;48.730;8.006;2022-10-15T03:27:58;0.47;;;0.40;;
5521;SDS011;2783;48.730;8.006;2022-10-15T03:30:23;1.48;;;0.40;;
5521;SDS011;2783;48.730;8.006;2022-10-15T03:32:49;0.40;;;0.40;;
5521;SDS011;2783;48.730;8.006;2022-10-15T03:35:14;2.28;;;0.68;;
5521;SDS011;2783;48.730;8.006;2022-10-15T03:37:40;2.85;;;0.47;;
5521;SDS011;2783;48.730;8.006;2022-10-15T03:40:06;1.75;;;0.50;;
5521;SDS011;2783;48.730;8.006;2022-10-15T03:42:32;0.55;;;0.50;;
5521;SDS011;2783;48.730;8.006;2022-10-15T03:44:57;0.80;;;0.40;;
5521;SDS011;2783;48.730;8.006;2022-10-15T03:47:22;1.65;;;0.52;;
5521;SDS011;2783;48.730;8.006;2022-10-15T03:49:48;0.60;;;0.40;;
5521;SDS011;2783;48.730;8.006;2022-10-15T03:52:13;2.45;;;0.50;;
5521;SDS011;2783;48.730;8.006;2022-10-15T03:54:39;1.85;;;0.70;;
5521;SDS011;2783;48.730;8.006;2022-10-15T03:57:05;3.67;;;1.20;;
5521;SDS011;2783;48.730;8.006;2022-10-15T03:59:30;1.63;;;0.70;;
5521;SDS011;2783;48.730;8.006;2022-10-15T04:01:56;1.88;;;0.55;;
5521;SDS011;2783;48.730;8.006;2022-10-15T04:04:21;1.85;;;0.90;;
5521;SDS011;2783;48.730;8.006;2022-10-15T04:06:47;1.55;;;0.60;;
5521;SDS011;2783;48.730;8.006;2022-10-15T04:09:12;0.93;;;0.55;;
5521;SDS011;2783;48.730;8.006;2022-10-15T04:11:39;2.13;;;0.55;;
5521;SDS011;2783;48.730;8.006;2022-10-15T04:14:05;3.90;;;0.70;;
5521;SDS011;2783;48.730;8.006;2022-10-15T04:16:31;1.92;;;0.40;;
5521;SDS011;2783;48.730;8.006;2022-10-15T04:18:56;5.28;;;0.73;;
5521;SDS011;2783;48.730;8.006;2022-10-15T04:21:23;2.80;;;0.47;;
5521;SDS011;2783;48.730;8.006;2022-10-15T04:23:51;3.17;;;0.52;;
5521;SDS011;2783;48.730;8.006;2022-10-15T04:26:16;2.25;;;0.57;;
5521;SDS011;2783;48.730;8.006;2022-10-15T04:28:42;3.83;;;0.63;;
5521;SDS011;2783;48.730;8.006;2022-10-15T04:31:07;0.82;;;0.60;;
5521;SDS011;2783;48.730;8.006;2022-10-15T04:33:33;0.60;;;0.60;;
5521;SDS011;2783;48.730;8.006;2022-10-15T04:36:03;0.75;;;0.40;;
5521;SDS011;2783;48.730;8.006;2022-10-15T04:38:31;4.82;;;1.25;;
5521;SDS011;2783;48.730;8.006;2022-10-15T04:41:00;2.65;;;0.60;;
5521;SDS011;2783;48.730;8.006;2022-10-15T04:43:28;2.03;;;0.65;;
5521;SDS011;2783;48.730;8.006;2022-10-15T04:45:54;3.13;;;0.80;;
5521;SDS011;2783;48.730;8.006;2022-10-15T04:48:24;0.75;;;0.60;;
5521;SDS011;2783;48.730;8.006;2022-10-15T04:50:51;1.98;;;1.10;;
5521;SDS011;2783;48.730;8.006;2022-10-15T04:53:16;5.55;;;1.33;;
5521;SDS011;2783;48.730;8.006;2022-10-15T04:55:42;2.17;;;0.90;;
5521;SDS011;2783;48.730;8.006;2022-10-15T04:58:07;3.60;;;1.00;;
5521;SDS011;2783;48.730;8.006;2022-10-15T05:00:32;3.60;;;1.20;;
5521;SDS011;2783;48.730;8.006;2022-10-15T05:02:58;2.95;;;1.50;;
5521;SDS011;2783;48.730;8.006;2022-10-15T05:05:23;1.55;;;0.60;;
5521;SDS011;2783;48.730;8.006;2022-10-15T05:07:49;2.97;;;0.70;;
5521;SDS011;2783;48.730;8.006;2022-10-15T05:10:14;1.05;;;0.70;;
5521;SDS011;2783;48.730;8.006;2022-10-15T05:12:40;1.20;;;0.70;;
5521;SDS011;2783;48.730;8.006;2022-10-15T05:15:05;2.60;;;1.10;;
5521;SDS011;2783;48.730;8.006;2022-10-15T05:17:31;3.58;;;0.60;;
5521;SDS011;2783;48.730;8.006;2022-10-15T05:19:57;1.65;;;0.63;;
5521;SDS011;2783;48.730;8.006;2022-10-15T05:22:22;1.42;;;0.70;;
5521;SDS011;2783;48.730;8.006;2022-10-15T05:24:48;1.88;;;0.70;;
5521;SDS011;2783;48.730;8.006;2022-10-15T05:27:13;5.38;;;0.95;;
5521;SDS011;2783;48.730;8.006;2022-10-15T05:29:39;4.90;;;0.77;;
5521;SDS011;2783;48.730;8.006;2022-10-15T05:32:04;1.85;;;0.95;;
5521;SDS011;2783;48.730;8.006;2022-10-15T05:34:30;1.67;;;0.63;;
5521;SDS011;2783;48.730;8.006;2022-10-15T05:36:55;2.25;;;0.75;;
5521;SDS011;2783;48.730;8.006;2022-10-15T05:39:21;5.30;;;1.02;;
5521;SDS011;2783;48.730;8.006;2022-10-15T05:41:46;2.17;;;0.75;;
5521;SDS011;2783;48.730;8.006;2022-10-15T05:44:13;2.35;;;0.88;;
5521;SDS011;2783;48.730;8.006;2022-10-15T05:46:39;1.58;;;0.88;;
5521;SDS011;2783;48.730;8.006;2022-10-15T05:49:05;2.20;;;0.80;;
5521;SDS011;2783;48.730;8.006;2022-10-15T05:51:30;3.03;;;0.90;;
5521;SDS011;2783;48.730;8.006;2022-10-15T05:53:56;2.92;;;0.90;;
5521;SDS011;2783;48.730;8.006;2022-10-15T05:56:23;3.22;;;1.88;;
5521;SDS011;2783;48.730;8.006;2022-10-15T05:58:49;2.45;;;1.00;;
5521;SDS011;2783;48.730;8.006;2022-10-15T06:01:16;3.13;;;0.95;;
5521;SDS011;2783;48.730;8.006;2022-10-15T06:03:41;2.92;;;1.40;;
5521;SDS011;2783;48.730;8.006;2022-10-15T06:06:14;2.78;;;1.00;;
5521;SDS011;2783;48.730;8.006;2022-10-15T06:08:39;5.27;;;1.53;;
5521;SDS011;2783;48.730;8.006;2022-10-15T06:11:05;5.15;;;1.30;;
5521;SDS011;2783;48.730;8.006;2022-10-15T06:13:30;3.60;;;1.80;;
5521;SDS011;2783;48.730;8.006;2022-10-15T06:15:55;3.05;;;1.10;;
5521;SDS011;2783;48.730;8.006;2022-10-15T06:18:21;2.25;;;1.25;;
5521;SDS011;2783;48.730;8.006;2022-10-15T06:20:50;4.93;;;1.33;;
5521;SDS011;2783;48.730;8.006;2022-10-15T06:23:17;4.65;;;0.70;;
5521;SDS011;2783;48.730;8.006;2022-10-15T06:25:42;2.53;;;0.70;;
5521;SDS011;2783;48.730;8.006;2022-10-15T06:28:09;1.02;;;0.50;;
5521;SDS011;2783;48.730;8.006;2022-10-15T06:30:35;3.72;;;1.10;;
5521;SDS011;2783;48.730;8.006;2022-10-15T06:33:00;2.33;;;1.20;;
5521;SDS011;2783;48.730;8.006;2022-10-15T06:35:26;2.03;;;0.70;;
5521;SDS011;2783;48.730;8.006;2022-10-15T06:37:54;0.75;;;0.60;;
5521;SDS011;2783;48.730;8.006;2022-10-15T06:40:20;2.65;;;0.93;;
5521;SDS011;2783;48.730;8.006;2022-10-15T06:42:45;2.28;;;0.90;;
5521;SDS011;2783;48.730;8.006;2022-10-15T06:45:11;3.33;;;1.45;;
5521;SDS011;2783;48.730;8.006;2022-10-15T06:47:38;2.15;;;1.20;;
5521;SDS011;2783;48.730;8.006;2022-10-15T06:50:04;1.77;;;0.80;;
5521;SDS011;2783;48.730;8.006;2022-10-15T06:52:31;4.05;;;0.90;;
5521;SDS011;2783;48.730;8.006;2022-10-15T06:54:58;1.85;;;1.00;;
5521;SDS011;2783;48.730;8.006;2022-10-15T06:57:24;3.13;;;0.70;;
5521;SDS011;2783;48.730;8.006;2022-10-15T06:59:50;1.60;;;0.90;;
5521;SDS011;2783;48.730;8.006;2022-10-15T07:02:16;0.75;;;0.57;;
5521;SDS011;2783;48.730;8.006;2022-10-15T07:04:43;2.50;;;0.70;;
5521;SDS011;2783;48.730;8.006;2022-10-15T07:07:09;6.30;;;0.80;;
5521;SDS011;2783;48.730;8.006;2022-10-15T07:09:34;4.13;;;0.88;;
5521;SDS011;2783;48.730;8.006;2022-10-15T07:12:00;1.60;;;0.90;;
5521;SDS011;2783;48.730;8.006;2022-10-15T07:14:26;2.63;;;1.20;;
5521;SDS011;2783;48.730;8.006;2022-10-15T07:16:51;3.05;;;1.10;;
5521;SDS011;2783;48.730;8.006;2022-10-15T07:19:17;2.22;;;1.10;;
5521;SDS011;2783;48.730;8.006;2022-10-15T07:21:45;3.67;;;1.60;;
5521;SDS011;2783;48.730;8.006;2022-10-15T07:24:10;2.13;;;0.77;;
5521;SDS011;2783;48.730;8.006;2022-10-15T07:26:36;1.27;;;0.73;;
5521;SDS011;2783;48.730;8.006;2022-10-15T07:29:02;1.95;;;1.10;;
5521;SDS011;2783;48.730;8.006;2022-10-15T07:31:28;1.33;;;0.75;;
5521;SDS011;2783;48.730;8.006;2022-10-15T07:33:53;1.83;;;0.90;;
5521;SDS011;2783;48.730;8.006;2022-10-15T07:36:20;1.67;;;0.80;;
5521;SDS011;2783;48.730;8.006;2022-10-15T07:38:45;1.90;;;1.00;;
5521;SDS011;2783;48.730;8.006;2022-10-15T07:41:11;3.25;;;1.30;;
5521;SDS011;2783;48.730;8.006;2022-10-15T07:43:37;0.90;;;0.60;;
5521;SDS011;2783;48.730;8.006;2022-10-15T07:46:02;1.88;;;1.05;;
5521;SDS011;2783;48.730;8.006;2022-10-15T07:48:28;3.90;;;1.20;;
5521;SDS011;2783;48.730;8.006;2022-10-15T07:50:58;1.65;;;0.90;;
5521;SDS011;2783;48.730;8.006;2022-10-15T07:53:25;3.80;;;1.08;;
5521;SDS011;2783;48.730;8.006;2022-10-15T07:55:51;2.63;;;0.88;;
5521;SDS011;2783;48.730;8.006;2022-10-15T07:58:17;1.33;;;0.90;;
5521;SDS011;2783;48.730;8.006;2022-10-15T08:00:42;3.50;;;1.77;;
5521;SDS011;2783;48.730;8.006;2022-10-15T08:03:08;3.03;;;0.80;;
5521;SDS011;2783;48.730;8.006;2022-10-15T08:05:34;3.63;;;0.90;;
5521;SDS011;2783;48.730;8.006;2022-10-15T08:07:59;3.70;;;0.88;;
5521;SDS011;2783;48.730;8.006;2022-10-15T08:10:25;1.85;;;0.65;;
5521;SDS011;2783;48.730;8.006;2022-10-15T08:12:51;2.97;;;0.82;;
5521;SDS011;2783;48.730;8.006;2022-10-15T08:15:16;3.08;;;0.90;;
5521;SDS011;2783;48.730;8.006;2022-10-15T08:17:42;1.58;;;0.80;;
5521;SDS011;2783;48.730;8.006;2022-10-15T08:20:08;3.88;;;0.82;;
5521;SDS011;2783;48.730;8.006;2022-10-15T08:22:33;1.70;;;0.88;;
5521;SDS011;2783;48.730;8.006;2022-10-15T08:24:59;2.53;;;0.77;;
5521;SDS011;2783;48.730;8.006;2022-10-15T08:27:24;3.10;;;0.93;;
5521;SDS011;2783;48.730;8.006;2022-10-15T08:29:50;2.15;;;1.00;;
5521;SDS011;2783;48.730;8.006;2022-10-15T08:32:16;2.13;;;0.77;;
5521;SDS011;2783;48.730;8.006;2022-10-15T08:34:41;2.97;;;0.80;;
5521;SDS011;2783;48.730;8.006;2022-10-15T08:37:06;1.63;;;1.00;;
5521;SDS011;2783;48.730;8.006;2022-10-15T08:39:32;1.65;;;0.63;;
5521;SDS011;2783;48.730;8.006;2022-10-15T08:42:01;6.82;;;1.10;;
5521;SDS011;2783;48.730;8.006;2022-10-15T08:44:45;1.15;;;0.90;;
5521;SDS011;2783;48.730;8.006;2022-10-15T08:49:50;1.00;;;0.70;;
5521;SDS011;2783;48.730;8.006;2022-10-15T08:52:24;3.25;;;1.60;;
5521;SDS011;2783;48.730;8.006;2022-10-15T08:54:59;3.35;;;0.80;;
5521;SDS011;2783;48.730;8.006;2022-10-15T09:00:04;2.85;;;1.10;;
5521;SDS011;2783;48.730;8.006;2022-10-15T09:02:39;2.63;;;1.20;;
5521;SDS011;2783;48.730;8.006;2022-10-15T09:10:33;2.17;;;1.08;;
5521;SDS011;2783;48.730;8.006;2022-10-15T09:16:16;1.75;;;1.20;;
5521;SDS011;2783;48.730;8.006;2022-10-15T09:18:47;4.30;;;1.65;;
5521;SDS011;2783;48.730;8.006;2022-10-15T09:21:15;3.85;;;1.50;;
5521;SDS011;2783;48.730;8.006;2022-10-15T09:23:41;3.55;;;1.60;;
5521;SDS011;2783;48.730;8.006;2022-10-15T09:28:38;5.07;;;1.60;;
5521;SDS011;2783;48.730;8.006;2022-10-15T09:31:04;6.20;;;1.55;;
5521;SDS011;2783;48.730;8.006;2022-10-15T09:33:39;2.78;;;1.55;;
5521;SDS011;2783;48.730;8.006;2022-10-15T09:41:24;2.20;;;1.05;;
5521;SDS011;2783;48.730;8.006;2022-10-15T09:43:54;2.72;;;0.82;;
5521;SDS011;2783;48.730;8.006;2022-10-15T09:46:23;2.08;;;1.00;;
5521;SDS011;2783;48.730;8.006;2022-10-15T09:48:56;2.90;;;1.13;;
5521;SDS011;2783;48.730;8.006;2022-10-15T09:51:26;3.47;;;0.82;;
5521;SDS011;2783;48.730;8.006;2022-10-15T09:54:21;1.90;;;0.90;;
5521;SDS011;2783;48.730;8.006;2022-10-15T09:56:53;2.03;;;1.27;;
5521;SDS011;2783;48.730;8.006;2022-10-15T09:59:20;1.30;;;0.68;;
5521;SDS011;2783;48.730;8.006;2022-10-15T10:02:00;1.95;;;0.77;;
5521;SDS011;2783;48.730;8.006;2022-10-15T10:04:31;3.45;;;1.20;;
5521;SDS011;2783;48.730;8.006;2022-10-15T10:07:02;1.63;;;0.70;;
5521;SDS011;2783;48.730;8.006;2022-10-15T10:09:51;3.15;;;0.85;;
5521;SDS011;2783;48.730;8.006;2022-10-15T10:12:30;5.13;;;1.13;;
5521;SDS011;2783;48.730;8.006;2022-10-15T10:14:59;2.70;;;0.98;;
5521;SDS011;2783;48.730;8.006;2022-10-15T10:17:28;2.22;;;1.10;;
5521;SDS011;2783;48.730;8.006;2022-10-15T10:22:55;2.83;;;0.95;;
5521;SDS011;2783;48.730;8.006;2022-10-15T10:25:27;3.75;;;0.98;;
5521;SDS011;2783;48.730;8.006;2022-10-15T10:27:57;2.67;;;0.90;;
5521;SDS011;2783;48.730;8.006;2022-10-15T10:30:36;2.63;;;1.02;;
5521;SDS011;2783;48.730;8.006;2022-10-15T10:33:06;3.72;;;0.90;;
5521;SDS011;2783;48.730;8.006;2022-10-15T10:35:44;2.92;;;0.93;;
5521;SDS011;2783;48.730;8.006;2022-10-15T10:41:07;4.90;;;1.13;;
5521;SDS011;2783;48.730;8.006;2022-10-15T10:43:35;2.90;;;1.00;;
5521;SDS011;2783;48.730;8.006;2022-10-15T10:46:03;5.47;;;1.20;;
5521;SDS011;2783;48.730;8.006;2022-10-15T10:51:08;2.22;;;1.05;;
5521;SDS011;2783;48.730;8.006;2022-10-15T10:53:37;2.78;;;1.20;;
5521;SDS011;2783;48.730;8.006;2022-10-15T10:56:10;3.35;;;1.17;;
5521;SDS011;2783;48.730;8.006;2022-10-15T10:58:37;4.50;;;0.88;;
5521;SDS011;2783;48.730;8.006;2022-10-15T11:01:03;2.55;;;0.70;;
5521;SDS011;2783;48.730;8.006;2022-10-15T11:19:57;3.63;;;1.65;;
5521;SDS011;2783;48.730;8.006;2022-10-15T11:22:42;3.42;;;1.42;;
5521;SDS011;2783;48.730;8.006;2022-10-15T11:46:20;2.53;;;1.20;;
5521;SDS011;2783;48.730;8.006;2022-10-15T11:54:00;4.57;;;1.55;;
5521;SDS011;2783;48.730;8.006;2022-10-15T11:56:38;2.38;;;1.20;;
5521;SDS011;2783;48.730;8.006;2022-10-15T12:02:33;3.22;;;1.10;;
5521;SDS011;2783;48.730;8.006;2022-10-15T12:05:08;4.05;;;1.15;;
5521;SDS011;2783;48.730;8.006;2022-10-15T12:12:38;3.00;;;1.05;;
5521;SDS011;2783;48.730;8.006;2022-10-15T12:17:41;2.42;;;1.10;;
5521;SDS011;2783;48.730;8.006;2022-10-15T12:20:12;2.75;;;1.30;;
5521;SDS011;2783;48.730;8.006;2022-10-15T12:25:57;6.88;;;1.50;;
5521;SDS011;2783;48.730;8.006;2022-10-15T12:30:32;3.22;;;1.08;;
5521;SDS011;2783;48.730;8.006;2022-10-15T12:33:01;4.47;;;1.47;;
5521;SDS011;2783;48.730;8.006;2022-10-15T12:35:37;3.65;;;1.73;;
5521;SDS011;2783;48.730;8.006;2022-10-15T12:41:02;3.35;;;1.90;;
5521;SDS011;2783;48.730;8.006;2022-10-15T12:43:34;4.35;;;2.17;;
5521;SDS011;2783;48.730;8.006;2022-10-15T12:46:04;6.80;;;2.35;;
5521;SDS011;2783;48.730;8.006;2022-10-15T12:48:34;8.18;;;3.33;;
5521;SDS011;2783;48.730;8.006;2022-10-15T12:53:44;4.55;;;2.33;;
5521;SDS011;2783;48.730;8.006;2022-10-15T12:56:11;4.50;;;2.30;;
5521;SDS011;2783;48.730;8.006;2022-10-15T12:58:50;6.07;;;3.30;;
5521;SDS011;2783;48.730;8.006;2022-10-15T13:11:48;7.70;;;5.22;;
5521;SDS011;2783;48.730;8.006;2022-10-15T13:17:14;8.32;;;4.60;;
5521;SDS011;2783;48.730;8.006;2022-10-15T13:19:46;7.50;;;3.53;;
5521;SDS011;2783;48.730;8.006;2022-10-15T13:22:21;8.77;;;3.85;;
5521;SDS011;2783;48.730;8.006;2022-10-15T13:24:47;6.93;;;4.53;;
5521;SDS011;2783;48.730;8.006;2022-10-15T13:27:24;8.43;;;4.75;;
5521;SDS011;2783;48.730;8.006;2022-10-15T13:29:59;10.88;;;4.15;;
5521;SDS011;2783;48.730;8.006;2022-10-15T13:32:30;6.45;;;3.63;;
5521;SDS011;2783;48.730;8.006;2022-10-15T13:35:01;11.88;;;4.70;;
5521;SDS011;2783;48.730;8.006;2022-10-15T13:37:34;14.38;;;5.90;;
5521;SDS011;2783;48.730;8.006;2022-10-15T13:40:04;12.52;;;5.45;;
5521;SDS011;2783;48.730;8.006;2022-10-15T13:42:30;5.60;;;3.25;;
5521;SDS011;2783;48.730;8.006;2022-10-15T13:50:19;3.60;;;1.80;;
5521;SDS011;2783;48.730;8.006;2022-10-15T13:55:47;5.60;;;2.40;;
5521;SDS011;2783;48.730;8.006;2022-10-15T13:58:23;3.75;;;1.70;;
5521;SDS011;2783;48.730;8.006;2022-10-15T14:03:32;3.88;;;2.08;;
5521;SDS011;2783;48.730;8.006;2022-10-15T14:08:51;2.70;;;1.23;;
5521;SDS011;2783;48.730;8.006;2022-10-15T14:11:19;4.95;;;2.10;;
5521;SDS011;2783;48.730;8.006;2022-10-15T14:13:49;3.15;;;1.20;;
5521;SDS011;2783;48.730;8.006;2022-10-15T14:21:36;2.22;;;1.25;;
5521;SDS011;2783;48.730;8.006;2022-10-15T14:24:14;3.22;;;1.27;;
5521;SDS011;2783;48.730;8.006;2022-10-15T14:26:43;3.47;;;1.80;;
5521;SDS011;2783;48.730;8.006;2022-10-15T14:29:21;2.25;;;1.20;;
5521;SDS011;2783;48.730;8.006;2022-10-15T14:31:53;2.83;;;1.10;;
5521;SDS011;2783;48.730;8.006;2022-10-15T14:34:27;3.67;;;1.60;;
5521;SDS011;2783;48.730;8.006;2022-10-15T14:39:27;5.65;;;1.90;;
5521;SDS011;2783;48.730;8.006;2022-10-15T14:41:58;5.40;;;2.38;;
5521;SDS011;2783;48.730;8.006;2022-10-15T14:44:46;4.57;;;1.83;;
5521;SDS011;2783;48.730;8.006;2022-10-15T14:47:19;4.90;;;1.65;;
5521;SDS011;2783;48.730;8.006;2022-10-15T14:49:50;4.07;;;1.55;;
5521;SDS011;2783;48.730;8.006;2022-10-15T14:52:22;4.87;;;1.40;;
5521;SDS011;2783;48.730;8.006;2022-10-15T14:54:59;2.08;;;1.20;;
5521;SDS011;2783;48.730;8.006;2022-10-15T14:57:28;2.55;;;1.00;;
5521;SDS011;2783;48.730;8.006;2022-10-15T14:59:58;1.00;;;0.67;;
5521;SDS011;2783;48.730;8.006;2022-10-15T15:02:25;3.28;;;0.90;;
5521;SDS011;2783;48.730;8.006;2022-10-15T15:07:37;4.35;;;1.42;;
5521;SDS011;2783;48.730;8.006;2022-10-15T15:10:04;2.70;;;1.80;;
5521;SDS011;2783;48.730;8.006;2022-10-15T15:12:32;4.32;;;1.60;;
5521;SDS011;2783;48.730;8.006;2022-10-15T15:14:58;3.17;;;1.20;;
5521;SDS011;2783;48.730;8.006;2022-10-15T15:17:25;3.38;;;1.20;;
5521;SDS011;2783;48.730;8.006;2022-10-15T15:19:52;3.13;;;1.27;;
5521;SDS011;2783;48.730;8.006;2022-10-15T15:22:29;3.05;;;1.27;;
5521;SDS011;2783;48.730;8.006;2022-10-15T15:24:57;2.25;;;1.10;;
5521;SDS011;2783;48.730;8.006;2022-10-15T15:27:25;2.70;;;1.08;;
5521;SDS011;2783;48.730;8.006;2022-10-15T15:29:56;4.85;;;1.02;;
5521;SDS011;2783;48.730;8.006;2022-10-15T15:32:22;2.53;;;1.23;;
5521;SDS011;2783;48.730;8.006;2022-10-15T15:34:49;3.08;;;0.95;;
5521;SDS011;2783;48.730;8.006;2022-10-15T15:37:17;4.78;;;1.10;;
5521;SDS011;2783;48.730;8.006;2022-10-15T15:39:46;4.72;;;1.33;;
5521;SDS011;2783;48.730;8.006;2022-10-15T15:42:15;4.15;;;1.15;;
5521;SDS011;2783;48.730;8.006;2022-10-15T15:44:42;3.95;;;1.35;;
5521;SDS011;2783;48.730;8.006;2022-10-15T15:47:08;3.80;;;1.30;;
5521;SDS011;2783;48.730;8.006;2022-10-15T15:49:33;5.07;;;1.20;;
5521;SDS011;2783;48.730;8.006;2022-10-15T15:52:00;4.13;;;1.10;;
5521;SDS011;2783;48.730;8.006;2022-10-15T15:54:26;7.78;;;1.52;;
5521;SDS011;2783;48.730;8.006;2022-10-15T15:56:51;3.17;;;1.15;;
5521;SDS011;2783;48.730;8.006;2022-10-15T15:59:17;2.42;;;1.00;;
5521;SDS011;2783;48.730;8.006;2022-10-15T16:01:43;1.38;;;1.00;;
5521;SDS011;2783;48.730;8.006;2022-10-15T16:04:10;3.15;;;1.50;;
5521;SDS011;2783;48.730;8.006;2022-10-15T16:06:39;1.90;;;0.85;;
5521;SDS011;2783;48.730;8.006;2022-10-15T16:09:04;1.75;;;0.80;;
5521;SDS011;2783;48.730;8.006;2022-10-15T16:11:30;0.95;;;0.63;;
5521;SDS011;2783;48.730;8.006;2022-10-15T16:13:56;2.25;;;1.13;;
5521;SDS011;2783;48.730;8.006;2022-10-15T16:16:22;2.60;;;0.80;;
5521;SDS011;2783;48.730;8.006;2022-10-15T16:18:48;1.65;;;0.98;;
5521;SDS011;2783;48.730;8.006;2022-10-15T16:21:19;3.35;;;0.75;;
5521;SDS011;2783;48.730;8.006;2022-10-15T16:23:48;2.85;;;1.25;;
5521;SDS011;2783;48.730;8.006;2022-10-15T16:26:14;2.53;;;1.17;;
5521;SDS011;2783;48.730;8.006;2022-10-15T16:28:39;3.30;;;1.40;;
5521;SDS011;2783;48.730;8.006;2022-10-15T16:33:47;7.70;;;1.38;;
5521;SDS011;2783;48.730;8.006;2022-10-15T16:36:12;2.13;;;0.93;;
5521;SDS011;2783;48.730;8.006;2022-10-15T16:38:39;5.57;;;1.90;;
5521;SDS011;2783;48.730;8.006;2022-10-15T16:41:06;2.60;;;1.13;;
5521;SDS011;2783;48.730;8.006;2022-10-15T16:43:32;4.03;;;0.90;;
5521;SDS011;2783;48.730;8.006;2022-10-15T16:45:58;2.80;;;1.10;;
5521;SDS011;2783;48.730;8.006;2022-10-15T16:48:25;5.80;;;1.45;;
5521;SDS011;2783;48.730;8.006;2022-10-15T16:51:07;4.18;;;1.73;;
5521;SDS011;2783;48.730;8.006;2022-10-15T16:53:37;3.67;;;1.77;;
5521;SDS011;2783;48.730;8.006;2022-10-15T16:56:08;4.25;;;1.42;;
5521;SDS011;2783;48.730;8.006;2022-10-15T16:58:35;3.20;;;1.35;;
5521;SDS011;2783;48.730;8.006;2022-10-15T17:01:02;2.88;;;1.30;;
5521;SDS011;2783;48.730;8.006;2022-10-15T17:03:29;3.58;;;1.20;;
5521;SDS011;2783;48.730;8.006;2022-10-15T17:05:57;5.03;;;2.00;;
5521;SDS011;2783;48.730;8.006;2022-10-15T17:08:28;3.20;;;1.55;;
5521;SDS011;2783;48.730;8.006;2022-10-15T17:11:07;3.53;;;1.10;;
5521;SDS011;2783;48.730;8.006;2022-10-15T17:13:37;3.40;;;1.30;;
5521;SDS011;2783;48.730;8.006;2022-10-15T17:16:16;2.10;;;1.40;;
5521;SDS011;2783;48.730;8.006;2022-10-15T17:18:43;5.05;;;2.22;;
5521;SDS011;2783;48.730;8.006;2022-10-15T17:21:11;5.10;;;2.13;;
5521;SDS011;2783;48.730;8.006;2022-10-15T17:23:38;5.97;;;2.05;;
5521;SDS011;2783;48.730;8.006;2022-10-15T17:26:05;4.13;;;1.70;;
5521;SDS011;2783;48.730;8.006;2022-10-15T17:28:32;3.90;;;2.25;;
5521;SDS011;2783;48.730;8.006;2022-10-15T17:31:02;7.55;;;3.53;;
5521;SDS011;2783;48.730;8.006;2022-10-15T17:33:33;7.25;;;2.58;;
5521;SDS011;2783;48.730;8.006;2022-10-15T17:36:11;3.28;;;1.75;;
5521;SDS011;2783;48.730;8.006;2022-10-15T17:38:38;7.10;;;3.15;;
5521;SDS011;2783;48.730;8.006;2022-10-15T17:41:14;4.97;;;2.20;;
5521;SDS011;2783;48.730;8.006;2022-10-15T17:43:42;4.47;;;2.00;;
5521;SDS011;2783;48.730;8.006;2022-10-15T17:46:09;11.90;;;1.85;;
5521;SDS011;2783;48.730;8.006;2022-10-15T17:48:36;14.25;;;3.13;;
5521;SDS011;2783;48.730;8.006;2022-10-15T17:51:03;4.03;;;1.80;;
5521;SDS011;2783;48.730;8.006;2022-10-15T17:53:30;8.10;;;3.47;;
5521;SDS011;2783;48.730;8.006;2022-10-15T17:55:56;8.20;;;3.00;;
5521;SDS011;2783;48.730;8.006;2022-10-15T17:58:22;7.47;;;2.72;;